sensor_id;sensor_type;location;lat;lon;timestamp;pressure;altitude;pressure_sealevel;temperature;humidity
62600;BME280;48671;48.922;2.346;2023-05-23T00:00:22;101807.97;;;17.54;62.09
62600;BME280;48671;48.922;2.346;2023-05-23T00:02:48;101806.59;;;17.47;62.05
62600;BME280;48671;48.922;2.346;2023-05-23T00:05:13;101808.75;;;17.39;62.08
62600;BME280;48671;48.922;2.346;2023-05-23T00:07:39;101808.00;;;17.37;62.36
62600;BME280;48671;48.922;2.346;2023-05-23T00:10:05;101806.91;;;17.41;62.51
62600;BME280;48671;48.922;2.346;2023-05-23T00:12:31;101816.63;;;17.39;62.36
62600;BME280;48671;48.922;2.346;2023-05-23T00:14:57;101815.03;;;17.37;62.28
62600;BME280;48671;48.922;2.346;2023-05-23T00:17:23;101816.88;;;17.35;62.16
62600;BME280;48671;48.922;2.346;2023-05-23T00:19:50;101807.50;;;17.29;62.00
62600;BME280;48671;48.922;2.346;2023-05-23T00:22:15;101812.75;;;17.29;62.27
62600;BME280;48671;48.922;2.346;2023-05-23T00:24:41;101819.81;;;17.28;62.29
62600;BME280;48671;48.922;2.346;2023-05-23T00:27:07;101816.38;;;17.26;62.01
62600;BME280;48671;48.922;2.346;2023-05-23T00:29:32;101820.09;;;17.22;62.05
62600;BME280;48671;48.922;2.346;2023-05-23T00:31:57;101820.03;;;17.24;62.00
62600;BME280;48671;48.922;2.346;2023-05-23T00:34:23;101814.22;;;17.17;61.89
62600;BME280;48671;48.922;2.346;2023-05-23T00:36:48;101818.78;;;17.14;62.24
62600;BME280;48671;48.922;2.346;2023-05-23T00:39:14;101820.63;;;17.12;62.01
62600;BME280;48671;48.922;2.346;2023-05-23T00:41:46;101824.06;;;17.14;62.18
62600;BME280;48671;48.922;2.346;2023-05-23T00:44:11;101815.53;;;17.08;61.86
62600;BME280;48671;48.922;2.346;2023-05-23T00:46:37;101817.50;;;17.03;62.24
62600;BME280;48671;48.922;2.346;2023-05-23T00:49:03;101819.53;;;16.98;62.28
62600;BME280;48671;48.922;2.346;2023-05-23T00:51:28;101823.78;;;17.01;61.80
62600;BME280;48671;48.922;2.346;2023-05-23T00:53:54;101814.03;;;17.03;62.34
62600;BME280;48671;48.922;2.346;2023-05-23T00:56:20;101805.25;;;17.04;61.85
62600;BME280;48671;48.922;2.346;2023-05-23T00:58:45;101803.38;;;17.06;62.09
62600;BME280;48671;48.922;2.346;2023-05-23T01:01:11;101803.47;;;17.04;62.30
62600;BME280;48671;48.922;2.346;2023-05-23T01:03:37;101807.06;;;17.02;62.45
62600;BME280;48671;48.922;2.346;2023-05-23T01:06:02;101799.47;;;16.96;62.08
62600;BME280;48671;48.922;2.346;2023-05-23T01:08:28;101803.91;;;16.95;62.02
62600;BME280;48671;48.922;2.346;2023-05-23T01:10:56;101805.53;;;16.98;62.23
62600;BME280;48671;48.922;2.346;2023-05-23T01:16:05;101807.75;;;16.88;62.10
62600;BME280;48671;48.922;2.346;2023-05-23T01:18:55;101806.09;;;16.85;62.52
62600;BME280;48671;48.922;2.346;2023-05-23T01:21:23;101808.03;;;16.82;62.57
62600;BME280;48671;48.922;2.346;2023-05-23T01:30:03;101804.09;;;16.72;62.73
62600;BME280;48671;48.922;2.346;2023-05-23T01:32:31;101807.63;;;16.71;62.80
62600;BME280;48671;48.922;2.346;2023-05-23T01:34:57;101809.56;;;16.67;62.85
62600;BME280;48671;48.922;2.346;2023-05-23T01:37:23;101821.72;;;16.70;63.38
62600;BME280;48671;48.922;2.346;2023-05-23T01:39:48;101821.84;;;16.67;63.48
62600;BME280;48671;48.922;2.346;2023-05-23T01:42:14;101815.84;;;16.65;63.29
62600;BME280;48671;48.922;2.346;2023-05-23T01:44:40;101812.69;;;16.56;63.60
62600;BME280;48671;48.922;2.346;2023-05-23T01:47:07;101824.19;;;16.54;63.70
62600;BME280;48671;48.922;2.346;2023-05-23T01:49:35;101808.72;;;16.48;64.18
62600;BME280;48671;48.922;2.346;2023-05-23T01:52:02;101812.22;;;16.48;63.69
62600;BME280;48671;48.922;2.346;2023-05-23T01:54:29;101815.75;;;16.47;63.76
62600;BME280;48671;48.922;2.346;2023-05-23T01:56:57;101836.72;;;16.49;63.90
62600;BME280;48671;48.922;2.346;2023-05-23T01:59:23;101827.97;;;16.48;63.48
62600;BME280;48671;48.922;2.346;2023-05-23T02:01:49;101823.63;;;16.47;64.29
62600;BME280;48671;48.922;2.346;2023-05-23T02:04:14;101821.97;;;16.45;64.05
62600;BME280;48671;48.922;2.346;2023-05-23T02:06:40;101811.00;;;16.36;64.02
62600;BME280;48671;48.922;2.346;2023-05-23T02:09:06;101825.53;;;16.44;63.69
62600;BME280;48671;48.922;2.346;2023-05-23T02:11:32;101826.47;;;16.43;64.03
62600;BME280;48671;48.922;2.346;2023-05-23T02:13:57;101828.16;;;16.44;64.12
62600;BME280;48671;48.922;2.346;2023-05-23T02:16:23;101834.13;;;16.47;64.26
62600;BME280;48671;48.922;2.346;2023-05-23T02:18:50;101827.97;;;16.48;64.38
62600;BME280;48671;48.922;2.346;2023-05-23T02:21:16;101825.50;;;16.45;64.69
62600;BME280;48671;48.922;2.346;2023-05-23T02:23:42;101824.22;;;16.35;64.05
62600;BME280;48671;48.922;2.346;2023-05-23T02:26:07;101820.25;;;16.25;64.15
62600;BME280;48671;48.922;2.346;2023-05-23T02:28:32;101835.03;;;16.27;64.42
62600;BME280;48671;48.922;2.346;2023-05-23T02:30:58;101835.13;;;16.26;64.74
62600;BME280;48671;48.922;2.346;2023-05-23T02:33:23;101841.41;;;16.22;64.38
62600;BME280;48671;48.922;2.346;2023-05-23T02:35:48;101840.69;;;16.18;64.78
62600;BME280;48671;48.922;2.346;2023-05-23T02:38:15;101839.34;;;16.09;64.41
62600;BME280;48671;48.922;2.346;2023-05-23T02:40:40;101851.16;;;15.99;65.14
62600;BME280;48671;48.922;2.346;2023-05-23T02:43:06;101834.41;;;15.81;64.91
62600;BME280;48671;48.922;2.346;2023-05-23T02:45:31;101831.88;;;15.80;65.18
62600;BME280;48671;48.922;2.346;2023-05-23T02:47:56;101832.00;;;15.77;65.27
62600;BME280;48671;48.922;2.346;2023-05-23T02:50:22;101839.03;;;15.76;65.37
62600;BME280;48671;48.922;2.346;2023-05-23T02:52:47;101842.41;;;15.78;65.33
62600;BME280;48671;48.922;2.346;2023-05-23T02:55:13;101848.38;;;15.82;65.28
62600;BME280;48671;48.922;2.346;2023-05-23T02:57:38;101856.34;;;15.80;65.49
62600;BME280;48671;48.922;2.346;2023-05-23T03:00:03;101851.34;;;15.74;65.69
62600;BME280;48671;48.922;2.346;2023-05-23T03:02:29;101851.47;;;15.71;66.08
62600;BME280;48671;48.922;2.346;2023-05-23T03:04:54;101855.78;;;15.72;66.06
62600;BME280;48671;48.922;2.346;2023-05-23T03:07:21;101847.94;;;15.72;65.76
62600;BME280;48671;48.922;2.346;2023-05-23T03:09:46;101852.19;;;15.75;65.64
62600;BME280;48671;48.922;2.346;2023-05-23T03:12:11;101847.94;;;15.72;65.62
62600;BME280;48671;48.922;2.346;2023-05-23T03:14:37;101845.38;;;15.71;66.19
62600;BME280;48671;48.922;2.346;2023-05-23T03:17:02;101849.06;;;15.65;65.74
62600;BME280;48671;48.922;2.346;2023-05-23T03:19:28;101841.44;;;15.59;66.64
62600;BME280;48671;48.922;2.346;2023-05-23T03:21:53;101852.75;;;15.61;66.40
62600;BME280;48671;48.922;2.346;2023-05-23T03:24:18;101849.28;;;15.60;66.26
62600;BME280;48671;48.922;2.346;2023-05-23T03:26:44;101850.06;;;15.62;65.41
62600;BME280;48671;48.922;2.346;2023-05-23T03:29:09;101855.63;;;15.55;66.03
62600;BME280;48671;48.922;2.346;2023-05-23T03:31:35;101860.88;;;15.55;66.13
62600;BME280;48671;48.922;2.346;2023-05-23T03:34:01;101867.28;;;15.48;66.46
62600;BME280;48671;48.922;2.346;2023-05-23T03:36:27;101861.13;;;15.49;66.49
62600;BME280;48671;48.922;2.346;2023-05-23T03:38:52;101868.13;;;15.48;66.62
62600;BME280;48671;48.922;2.346;2023-05-23T03:41:18;101870.88;;;15.45;66.47
62600;BME280;48671;48.922;2.346;2023-05-23T03:43:43;101865.09;;;15.37;65.90
62600;BME280;48671;48.922;2.346;2023-05-23T03:46:08;101866.25;;;15.30;65.88
62600;BME280;48671;48.922;2.346;2023-05-23T03:48:34;101881.13;;;15.29;66.32
62600;BME280;48671;48.922;2.346;2023-05-23T03:50:59;101871.88;;;15.20;66.77
62600;BME280;48671;48.922;2.346;2023-05-23T03:53:24;101873.81;;;15.15;66.98
62600;BME280;48671;48.922;2.346;2023-05-23T03:55:50;101875.47;;;15.18;66.67
62600;BME280;48671;48.922;2.346;2023-05-23T03:58:18;101867.88;;;15.10;67.07
62600;BME280;48671;48.922;2.346;2023-05-23T04:00:43;101871.19;;;15.15;66.51
62600;BME280;48671;48.922;2.346;2023-05-23T04:03:08;101885.97;;;15.18;66.98
62600;BME280;48671;48.922;2.346;2023-05-23T04:05:35;101873.81;;;15.15;66.63
62600;BME280;48671;48.922;2.346;2023-05-23T04:08:00;101875.72;;;15.12;67.03
62600;BME280;48671;48.922;2.346;2023-05-23T04:10:26;101872.50;;;15.04;67.21
62600;BME280;48671;48.922;2.346;2023-05-23T04:12:51;101875.13;;;15.04;67.09
62600;BME280;48671;48.922;2.346;2023-05-23T04:15:17;101873.56;;;14.99;67.64
62600;BME280;48671;48.922;2.346;2023-05-23T04:17:45;101879.00;;;14.95;67.80
62600;BME280;48671;48.922;2.346;2023-05-23T04:20:10;101881.50;;;14.98;67.21
62600;BME280;48671;48.922;2.346;2023-05-23T04:22:37;101880.44;;;15.02;67.46
62600;BME280;48671;48.922;2.346;2023-05-23T04:25:02;101882.03;;;15.06;67.51
62600;BME280;48671;48.922;2.346;2023-05-23T04:27:28;101885.47;;;15.08;67.75
62600;BME280;48671;48.922;2.346;2023-05-23T04:29:53;101882.78;;;15.10;67.72
62600;BME280;48671;48.922;2.346;2023-05-23T04:32:20;101888.63;;;15.16;67.40
62600;BME280;48671;48.922;2.346;2023-05-23T04:34:47;101888.59;;;15.18;67.32
62600;BME280;48671;48.922;2.346;2023-05-23T04:37:12;101893.63;;;15.22;67.42
62600;BME280;48671;48.922;2.346;2023-05-23T04:39:38;101900.34;;;15.30;66.94
62600;BME280;48671;48.922;2.346;2023-05-23T04:42:04;101903.88;;;15.29;66.65
62600;BME280;48671;48.922;2.346;2023-05-23T04:44:31;101902.94;;;15.30;66.40
62600;BME280;48671;48.922;2.346;2023-05-23T04:46:57;101903.81;;;15.30;67.04
62600;BME280;48671;48.922;2.346;2023-05-23T04:49:23;101909.00;;;15.32;67.13
62600;BME280;48671;48.922;2.346;2023-05-23T04:51:48;101902.84;;;15.33;67.03
62600;BME280;48671;48.922;2.346;2023-05-23T04:54:13;101898.50;;;15.32;67.48
62600;BME280;48671;48.922;2.346;2023-05-23T04:56:39;101904.63;;;15.32;67.23
62600;BME280;48671;48.922;2.346;2023-05-23T04:59:04;101904.50;;;15.35;67.01
62600;BME280;48671;48.922;2.346;2023-05-23T05:01:32;101898.50;;;15.32;67.33
62600;BME280;48671;48.922;2.346;2023-05-23T05:03:58;101896.69;;;15.34;66.96
62600;BME280;48671;48.922;2.346;2023-05-23T05:06:23;101910.59;;;15.36;67.30
62600;BME280;48671;48.922;2.346;2023-05-23T05:08:49;101902.91;;;15.31;66.93
62600;BME280;48671;48.922;2.346;2023-05-23T05:11:14;101899.97;;;15.17;68.04
62600;BME280;48671;48.922;2.346;2023-05-23T05:13:40;101909.59;;;15.16;67.32
62600;BME280;48671;48.922;2.346;2023-05-23T05:16:05;101902.84;;;15.11;68.06
62600;BME280;48671;48.922;2.346;2023-05-23T05:18:30;101901.13;;;15.10;67.26
62600;BME280;48671;48.922;2.346;2023-05-23T05:20:56;101903.69;;;15.11;67.82
62600;BME280;48671;48.922;2.346;2023-05-23T05:23:24;101911.47;;;15.13;67.45
62600;BME280;48671;48.922;2.346;2023-05-23T05:25:50;101914.19;;;15.11;68.01
62600;BME280;48671;48.922;2.346;2023-05-23T05:28:15;101908.81;;;15.14;67.95
62600;BME280;48671;48.922;2.346;2023-05-23T05:30:40;101906.94;;;15.18;68.15
62600;BME280;48671;48.922;2.346;2023-05-23T05:33:06;101901.63;;;15.19;67.69
62600;BME280;48671;48.922;2.346;2023-05-23T05:35:32;101908.31;;;15.27;67.64
62600;BME280;48671;48.922;2.346;2023-05-23T05:37:58;101918.66;;;15.31;68.01
62600;BME280;48671;48.922;2.346;2023-05-23T05:40:24;101922.84;;;15.35;67.72
62600;BME280;48671;48.922;2.346;2023-05-23T05:42:50;101924.66;;;15.33;67.58
62600;BME280;48671;48.922;2.346;2023-05-23T05:45:15;101922.16;;;15.30;67.88
62600;BME280;48671;48.922;2.346;2023-05-23T05:47:41;101917.06;;;15.27;68.15
62600;BME280;48671;48.922;2.346;2023-05-23T05:50:07;101913.69;;;15.23;68.03
62600;BME280;48671;48.922;2.346;2023-05-23T05:52:34;101924.97;;;15.26;68.21
62600;BME280;48671;48.922;2.346;2023-05-23T05:55:04;101920.81;;;15.20;68.49
62600;BME280;48671;48.922;2.346;2023-05-23T05:57:31;101934.84;;;15.19;68.38
62600;BME280;48671;48.922;2.346;2023-05-23T05:59:57;101941.56;;;15.26;68.03
62600;BME280;48671;48.922;2.346;2023-05-23T06:02:22;101934.50;;;15.28;67.96
62600;BME280;48671;48.922;2.346;2023-05-23T06:04:47;101933.56;;;15.29;68.22
62600;BME280;48671;48.922;2.346;2023-05-23T06:07:12;101929.06;;;15.33;68.36
62600;BME280;48671;48.922;2.346;2023-05-23T06:09:38;101931.69;;;15.33;68.57
62600;BME280;48671;48.922;2.346;2023-05-23T06:12:03;101940.41;;;15.33;68.36
62600;BME280;48671;48.922;2.346;2023-05-23T06:14:28;101939.44;;;15.36;68.40
62600;BME280;48671;48.922;2.346;2023-05-23T06:16:54;101924.78;;;15.30;68.56
62600;BME280;48671;48.922;2.346;2023-05-23T06:19:19;101930.66;;;15.37;68.53
62600;BME280;48671;48.922;2.346;2023-05-23T06:21:44;101934.13;;;15.37;68.23
62600;BME280;48671;48.922;2.346;2023-05-23T06:24:10;101946.09;;;15.44;68.42
62600;BME280;48671;48.922;2.346;2023-05-23T06:26:35;101940.78;;;15.46;68.39
62600;BME280;48671;48.922;2.346;2023-05-23T06:29:02;101945.13;;;15.47;68.06
62600;BME280;48671;48.922;2.346;2023-05-23T06:31:27;101951.34;;;15.44;68.72
62600;BME280;48671;48.922;2.346;2023-05-23T06:33:52;101949.69;;;15.42;68.32
62600;BME280;48671;48.922;2.346;2023-05-23T06:36:18;101942.00;;;15.37;68.25
62600;BME280;48671;48.922;2.346;2023-05-23T06:38:43;101946.25;;;15.40;68.19
62600;BME280;48671;48.922;2.346;2023-05-23T06:41:09;101948.00;;;15.41;68.96
62600;BME280;48671;48.922;2.346;2023-05-23T06:43:34;101948.84;;;15.41;68.17
62600;BME280;48671;48.922;2.346;2023-05-23T06:46:00;101958.28;;;15.45;67.96
62600;BME280;48671;48.922;2.346;2023-05-23T06:48:25;101955.00;;;15.40;67.74
62600;BME280;48671;48.922;2.346;2023-05-23T06:50:50;101952.50;;;15.37;68.19
62600;BME280;48671;48.922;2.346;2023-05-23T06:53:16;101962.19;;;15.35;69.10
62600;BME280;48671;48.922;2.346;2023-05-23T06:55:42;101965.78;;;15.33;68.45
62600;BME280;48671;48.922;2.346;2023-05-23T06:58:07;101969.00;;;15.39;68.68
62600;BME280;48671;48.922;2.346;2023-05-23T07:00:33;101979.25;;;15.45;68.27
62600;BME280;48671;48.922;2.346;2023-05-23T07:02:58;101964.75;;;15.37;68.31
62600;BME280;48671;48.922;2.346;2023-05-23T07:05:26;101979.38;;;15.42;68.34
62600;BME280;48671;48.922;2.346;2023-05-23T07:07:52;101971.59;;;15.41;69.01
62600;BME280;48671;48.922;2.346;2023-05-23T07:10:17;101981.97;;;15.44;68.44
62600;BME280;48671;48.922;2.346;2023-05-23T07:12:44;101980.13;;;15.46;68.16
62600;BME280;48671;48.922;2.346;2023-05-23T07:15:10;101981.78;;;15.49;68.50
62600;BME280;48671;48.922;2.346;2023-05-23T07:17:35;101989.28;;;15.58;68.41
62600;BME280;48671;48.922;2.346;2023-05-23T07:20:01;101991.78;;;15.61;68.07
62600;BME280;48671;48.922;2.346;2023-05-23T07:22:27;101989.81;;;15.66;67.89
62600;BME280;48671;48.922;2.346;2023-05-23T07:24:52;101999.47;;;15.65;67.78
62600;BME280;48671;48.922;2.346;2023-05-23T07:27:17;102002.00;;;15.68;67.54
62600;BME280;48671;48.922;2.346;2023-05-23T07:29:42;102000.19;;;15.71;67.81
62600;BME280;48671;48.922;2.346;2023-05-23T07:32:08;101996.63;;;15.72;67.78
62600;BME280;48671;48.922;2.346;2023-05-23T07:34:33;102010.44;;;15.77;67.83
62600;BME280;48671;48.922;2.346;2023-05-23T07:36:58;102002.31;;;15.83;67.22
62600;BME280;48671;48.922;2.346;2023-05-23T07:39:24;102000.34;;;15.88;67.38
62600;BME280;48671;48.922;2.346;2023-05-23T07:41:49;102001.16;;;15.90;67.19
62600;BME280;48671;48.922;2.346;2023-05-23T07:44:16;102002.72;;;15.94;66.67
62600;BME280;48671;48.922;2.346;2023-05-23T07:46:42;102009.63;;;15.97;66.81
62600;BME280;48671;48.922;2.346;2023-05-23T07:49:07;102007.88;;;15.97;66.54
62600;BME280;48671;48.922;2.346;2023-05-23T07:51:33;102014.16;;;15.93;67.06
62600;BME280;48671;48.922;2.346;2023-05-23T07:53:58;102015.78;;;15.96;67.03
62600;BME280;48671;48.922;2.346;2023-05-23T07:56:24;102020.06;;;15.98;66.59
62600;BME280;48671;48.922;2.346;2023-05-23T07:58:50;102026.91;;;16.02;66.95
62600;BME280;48671;48.922;2.346;2023-05-23T08:01:15;102017.16;;;16.06;66.73
62600;BME280;48671;48.922;2.346;2023-05-23T08:03:42;102020.63;;;16.06;66.33
62600;BME280;48671;48.922;2.346;2023-05-23T08:06:07;102021.50;;;16.05;66.41
62600;BME280;48671;48.922;2.346;2023-05-23T08:08:33;102021.59;;;16.04;66.51
62600;BME280;48671;48.922;2.346;2023-05-23T08:10:58;102020.53;;;16.08;66.11
62600;BME280;48671;48.922;2.346;2023-05-23T08:13:23;102027.69;;;16.04;66.48
62600;BME280;48671;48.922;2.346;2023-05-23T08:15:49;102029.53;;;16.02;66.83
62600;BME280;48671;48.922;2.346;2023-05-23T08:18:14;102026.13;;;16.00;66.62
62600;BME280;48671;48.922;2.346;2023-05-23T08:20:40;102029.59;;;16.01;66.67
62600;BME280;48671;48.922;2.346;2023-05-23T08:23:07;102027.88;;;16.00;67.07
62600;BME280;48671;48.922;2.346;2023-05-23T08:25:32;102028.78;;;15.99;67.58
62600;BME280;48671;48.922;2.346;2023-05-23T08:27:58;102029.53;;;16.02;67.62
62600;BME280;48671;48.922;2.346;2023-05-23T08:30:24;102029.38;;;16.05;67.07
62600;BME280;48671;48.922;2.346;2023-05-23T08:32:51;102026.00;;;16.03;67.72
62600;BME280;48671;48.922;2.346;2023-05-23T08:35:17;102032.91;;;16.06;67.97
62600;BME280;48671;48.922;2.346;2023-05-23T08:37:42;102027.78;;;16.03;67.16
62600;BME280;48671;48.922;2.346;2023-05-23T08:40:17;102039.13;;;16.03;67.46
62600;BME280;48671;48.922;2.346;2023-05-23T08:42:43;102034.00;;;16.00;67.52
62600;BME280;48671;48.922;2.346;2023-05-23T08:45:09;102034.09;;;15.97;67.34
62600;BME280;48671;48.922;2.346;2023-05-23T08:47:36;102035.66;;;16.03;67.32
62600;BME280;48671;48.922;2.346;2023-05-23T08:50:10;102039.97;;;16.04;67.38
62600;BME280;48671;48.922;2.346;2023-05-23T08:52:42;102039.03;;;16.05;67.48
62600;BME280;48671;48.922;2.346;2023-05-23T08:55:08;102039.66;;;16.11;67.74
62600;BME280;48671;48.922;2.346;2023-05-23T08:57:34;102041.31;;;16.14;67.55
62600;BME280;48671;48.922;2.346;2023-05-23T09:00:00;102044.66;;;16.18;67.05
62600;BME280;48671;48.922;2.346;2023-05-23T09:02:28;102042.03;;;16.18;67.34
62600;BME280;48671;48.922;2.346;2023-05-23T09:04:56;102035.56;;;16.26;67.47
62600;BME280;48671;48.922;2.346;2023-05-23T09:07:21;102032.59;;;16.34;66.94
62600;BME280;48671;48.922;2.346;2023-05-23T09:09:47;102042.00;;;16.39;66.57
62600;BME280;48671;48.922;2.346;2023-05-23T09:12:12;102042.00;;;16.39;66.65
62600;BME280;48671;48.922;2.346;2023-05-23T09:14:39;102042.03;;;16.38;66.68
62600;BME280;48671;48.922;2.346;2023-05-23T09:17:05;102049.81;;;16.41;66.66
62600;BME280;48671;48.922;2.346;2023-05-23T09:19:30;102043.81;;;16.37;65.87
62600;BME280;48671;48.922;2.346;2023-05-23T09:21:56;102038.44;;;16.41;66.20
62600;BME280;48671;48.922;2.346;2023-05-23T09:24:21;102042.13;;;16.36;66.15
62600;BME280;48671;48.922;2.346;2023-05-23T09:26:47;102054.47;;;16.34;66.44
62600;BME280;48671;48.922;2.346;2023-05-23T09:29:12;102046.91;;;16.27;65.90
62600;BME280;48671;48.922;2.346;2023-05-23T09:31:38;102061.69;;;16.29;66.04
62600;BME280;48671;48.922;2.346;2023-05-23T09:34:03;102053.84;;;16.28;66.62
62600;BME280;48671;48.922;2.346;2023-05-23T09:36:30;102064.25;;;16.31;66.20
62600;BME280;48671;48.922;2.346;2023-05-23T09:39:01;102058.97;;;16.31;66.14
62600;BME280;48671;48.922;2.346;2023-05-23T09:41:29;102057.28;;;16.30;66.70
62600;BME280;48671;48.922;2.346;2023-05-23T09:43:55;102057.41;;;16.27;66.33
62600;BME280;48671;48.922;2.346;2023-05-23T09:46:21;102066.13;;;16.27;66.23
62600;BME280;48671;48.922;2.346;2023-05-23T09:48:50;102058.22;;;16.29;66.59
62600;BME280;48671;48.922;2.346;2023-05-23T09:51:21;102075.78;;;16.27;66.75
62600;BME280;48671;48.922;2.346;2023-05-23T09:53:47;102068.84;;;16.26;66.15
62600;BME280;48671;48.922;2.346;2023-05-23T09:56:14;102064.44;;;16.26;66.60
62600;BME280;48671;48.922;2.346;2023-05-23T09:58:46;102069.69;;;16.26;66.34
62600;BME280;48671;48.922;2.346;2023-05-23T10:01:13;102066.88;;;16.31;65.79
62600;BME280;48671;48.922;2.346;2023-05-23T10:03:47;102067.78;;;16.30;65.90
62600;BME280;48671;48.922;2.346;2023-05-23T10:06:22;102056.00;;;16.18;66.18
62600;BME280;48671;48.922;2.346;2023-05-23T10:09:09;102068.25;;;16.19;65.46
62600;BME280;48671;48.922;2.346;2023-05-23T10:14:08;102060.41;;;16.18;65.78
62600;BME280;48671;48.922;2.346;2023-05-23T10:16:52;102073.16;;;16.27;65.96
62600;BME280;48671;48.922;2.346;2023-05-23T10:19:42;102077.38;;;16.31;66.46
62600;BME280;48671;48.922;2.346;2023-05-23T10:22:12;102075.34;;;16.37;66.20
62600;BME280;48671;48.922;2.346;2023-05-23T10:24:39;102073.53;;;16.39;65.70
62600;BME280;48671;48.922;2.346;2023-05-23T10:27:05;102064.66;;;16.42;66.23
62600;BME280;48671;48.922;2.346;2023-05-23T10:29:31;102065.31;;;16.47;65.37
62600;BME280;48671;48.922;2.346;2023-05-23T10:31:58;102061.91;;;16.45;65.53
62600;BME280;48671;48.922;2.346;2023-05-23T10:34:55;102065.13;;;16.52;64.73
62600;BME280;48671;48.922;2.346;2023-05-23T10:37:31;102067.63;;;16.55;64.71
62600;BME280;48671;48.922;2.346;2023-05-23T10:42:28;102066.69;;;16.78;63.93
62600;BME280;48671;48.922;2.346;2023-05-23T10:45:15;102066.22;;;16.89;64.48
62600;BME280;48671;48.922;2.346;2023-05-23T10:47:40;102068.31;;;17.01;63.88
62600;BME280;48671;48.922;2.346;2023-05-23T10:50:06;102059.09;;;17.11;63.45
62600;BME280;48671;48.922;2.346;2023-05-23T10:52:39;102048.72;;;17.08;62.84
62600;BME280;48671;48.922;2.346;2023-05-23T10:55:15;102058.09;;;17.14;62.87
62600;BME280;48671;48.922;2.346;2023-05-23T10:57:43;102051.34;;;17.08;62.46
62600;BME280;48671;48.922;2.346;2023-05-23T11:00:15;102046.91;;;17.08;62.70
62600;BME280;48671;48.922;2.346;2023-05-23T11:02:54;102057.31;;;17.12;62.83
62600;BME280;48671;48.922;2.346;2023-05-23T11:05:24;102056.72;;;17.05;62.06
62600;BME280;48671;48.922;2.346;2023-05-23T11:08:11;102056.00;;;17.01;62.12
62600;BME280;48671;48.922;2.346;2023-05-23T11:10:58;102056.00;;;17.01;62.05
62600;BME280;48671;48.922;2.346;2023-05-23T11:13:24;102057.78;;;17.01;61.81
62600;BME280;48671;48.922;2.346;2023-05-23T11:15:50;102056.59;;;17.08;62.11
62600;BME280;48671;48.922;2.346;2023-05-23T11:18:25;102050.94;;;17.17;61.90
62600;BME280;48671;48.922;2.346;2023-05-23T11:20:52;102058.03;;;17.34;61.63
62600;BME280;48671;48.922;2.346;2023-05-23T11:23:19;102047.88;;;17.45;60.78
62600;BME280;48671;48.922;2.346;2023-05-23T11:25:50;102052.44;;;17.61;60.93
62600;BME280;48671;48.922;2.346;2023-05-23T11:28:16;102047.03;;;17.64;60.09
62600;BME280;48671;48.922;2.346;2023-05-23T11:30:42;102042.19;;;17.73;59.84
62600;BME280;48671;48.922;2.346;2023-05-23T11:33:09;102044.03;;;17.90;60.04
62600;BME280;48671;48.922;2.346;2023-05-23T11:35:41;102038.28;;;18.18;59.40
62600;BME280;48671;48.922;2.346;2023-05-23T11:38:08;102031.59;;;18.46;58.98
62600;BME280;48671;48.922;2.346;2023-05-23T11:40:41;102032.53;;;18.62;58.60
62600;BME280;48671;48.922;2.346;2023-05-23T11:43:14;102029.09;;;18.60;57.57
62600;BME280;48671;48.922;2.346;2023-05-23T11:45:40;102032.00;;;18.56;57.23
62600;BME280;48671;48.922;2.346;2023-05-23T11:48:10;102039.44;;;18.47;57.42
62600;BME280;48671;48.922;2.346;2023-05-23T11:51:03;102037.34;;;18.37;57.19
62600;BME280;48671;48.922;2.346;2023-05-23T11:53:29;102039.28;;;18.33;57.51
62600;BME280;48671;48.922;2.346;2023-05-23T11:55:56;102036.09;;;18.27;57.17
62600;BME280;48671;48.922;2.346;2023-05-23T11:58:28;102041.38;;;18.27;57.79
62600;BME280;48671;48.922;2.346;2023-05-23T12:01:03;102048.47;;;18.24;57.71
62600;BME280;48671;48.922;2.346;2023-05-23T12:03:29;102038.66;;;18.28;57.49
62600;BME280;48671;48.922;2.346;2023-05-23T12:05:54;102030.69;;;18.30;57.61
62600;BME280;48671;48.922;2.346;2023-05-23T12:08:20;102024.25;;;18.35;58.04
62600;BME280;48671;48.922;2.346;2023-05-23T12:10:56;102026.16;;;18.66;57.65
62600;BME280;48671;48.922;2.346;2023-05-23T12:13:23;102027.44;;;19.26;57.34
62600;BME280;48671;48.922;2.346;2023-05-23T12:15:53;102019.06;;;19.82;55.34
62600;BME280;48671;48.922;2.346;2023-05-23T12:18:19;102018.06;;;20.29;54.40
62600;BME280;48671;48.922;2.346;2023-05-23T12:20:47;102012.44;;;20.50;51.44
62600;BME280;48671;48.922;2.346;2023-05-23T12:23:23;102018.66;;;20.79;53.03
62600;BME280;48671;48.922;2.346;2023-05-23T12:25:53;102007.31;;;20.91;50.84
62600;BME280;48671;48.922;2.346;2023-05-23T12:28:38;102001.44;;;21.15;51.59
62600;BME280;48671;48.922;2.346;2023-05-23T12:31:11;102008.91;;;21.37;50.18
62600;BME280;48671;48.922;2.346;2023-05-23T12:33:40;102001.13;;;21.48;49.06
62600;BME280;48671;48.922;2.346;2023-05-23T12:36:10;102009.97;;;21.61;50.29
62600;BME280;48671;48.922;2.346;2023-05-23T12:38:36;102000.84;;;21.53;50.15
62600;BME280;48671;48.922;2.346;2023-05-23T12:41:09;101997.56;;;21.76;48.14
62600;BME280;48671;48.922;2.346;2023-05-23T12:43:48;101998.34;;;22.18;47.14
62600;BME280;48671;48.922;2.346;2023-05-23T12:46:14;101989.84;;;22.26;46.75
62600;BME280;48671;48.922;2.346;2023-05-23T12:48:39;101989.63;;;22.16;46.64
62600;BME280;48671;48.922;2.346;2023-05-23T12:51:05;101976.63;;;21.98;46.47
62600;BME280;48671;48.922;2.346;2023-05-23T12:53:30;101983.78;;;21.84;46.72
62600;BME280;48671;48.922;2.346;2023-05-23T12:55:56;101997.72;;;22.00;46.45
62600;BME280;48671;48.922;2.346;2023-05-23T12:58:21;101998.66;;;22.39;46.60
62600;BME280;48671;48.922;2.346;2023-05-23T13:00:47;101979.56;;;22.72;45.33
62600;BME280;48671;48.922;2.346;2023-05-23T13:03:12;101984.69;;;23.25;43.85